Amherst, OH

4:00 AM EDT on August 03, 2015 (GMT -0400)
South Amherst - WD8CXB | | Change Station
CLOSE
Current Station
Personal Weather Station
Location: South Amherst, OH
Elevation: 748 ft
Nearby Weather Stations

Elev 748 ft 41.36 °N, 82.23 °W | Updated 17 seconds ago

Rain
Rain
62.2 °F
Feels Like 62.2 °F
N
2.0
Wind Variable Wind from WSW
Gusts 2.0 mph

Today
High -- | Low -- °F
--% Chance of Precip.
Yesterday
High -- | Low -- °F
Precip. -- in
6:25 AM 8:43 PM
Waning Gibbous, 88% visible
Pressure 29.87 in
Visibility 6.0 miles
Clouds Mostly Cloudy 8500 ft
Overcast 10000 ft
Dew Point 62 °F
Humidity 99%
Rainfall 1.21 in
Snow Depth Not available.
UV 0 out of 12
Pollen 7.70 out of 12
Air Quality Not available.
Flu Activity Not available.
METAR KLPR 030753Z AUTO 20005KT 6SM RA BR BKN085 OVC100 17/16 A2988 RMK AO2 SLP113 P0014 T01670161 TSNO

More Conditions Fewer Conditions

Pressure 29.87 in
Visibility 6.0 miles
Clouds Mostly Cloudy 8500 ft
Overcast 10000 ft
Dew Point 62 °F
Humidity 99%
Rainfall 1.21 in
Snow Depth Not available.
UV 0 out of 12
Pollen 7.70 out of 12
Air Quality Not available.
Flu Activity Not available.
METAR KLPR 030753Z AUTO 20005KT 6SM RA BR BKN085 OVC100 17/16 A2988 RMK AO2 SLP113 P0014 T01670161 TSNO

More Conditions Fewer Conditions

10-Day Weather Forecast

×

Almanac

Astronomy

Aug. 03, 2015 Rise Set
Actual Time
Civil Twilight
Nautical Twilight
Astronomical Twilight
Moon
Length of Visible Light
Length of Day
Tomorrow will be .
, % of the Moon is Illuminated

Today's Extremes

State Highs State Lows

Community

WunderPhotos

Upload Photos

1,843,594 photos uploaded!

WunderBlogs® & News

Nearby

Air Quality

  Air Quality AQ Index Pollutant
Not available.

Snow Depth

Station Depth Elevation

Earthquake Activity

City Distance Mag. Time & Date
Minimum magnitude displayed is 2.5.

Coastal Water Temperatures

Place Temperature

Stations

Nearby Weather Stations

Station Location Temp. Windchill Dew Point Humidity Wind Precip. Elev Updated Type